Time;durP1;ratioP1;P1;durP2;ratioP2;P2;SDS_P1;SDS_P2;PMS_P1;PMS_P2;Temp;Humidity;BMP_temperature;BMP_pressure;BME280_temperature;BME280_humidity;BME280_pressure;Samples;Min_cycle;Max_cycle;Signal;HPM_P1;HPM_P2
2022/12/01 00:02:10;;;;;;;56.20;24.13;;;;;;;-143.48;90.18;118439.88;5035758;28;20041;-38
2022/12/01 00:04:35;;;;;;;54.88;23.50;;;;;;;-143.48;90.25;118439.88;5035526;28;20373;-38
2022/12/01 00:07:01;;;;;;;59.47;23.50;;;;;;;-143.48;90.31;118439.88;5034674;28;20021;-38
2022/12/01 00:12:09;;;;;;;59.38;24.30;;;;;;;-143.48;90.37;118439.88;5035167;28;20132;-38
2022/12/01 00:14:35;;;;;;;59.75;24.98;;;;;;;-143.48;90.06;118439.88;5035024;28;20053;-38
2022/12/01 00:17:00;;;;;;;58.28;23.25;;;;;;;-143.48;90.42;118439.88;5034858;28;20025;-38
2022/12/01 00:19:26;;;;;;;58.90;24.35;;;;;;;-143.48;90.19;118439.88;5034828;28;20053;-39
2022/12/01 00:21:52;;;;;;;57.60;24.65;;;;;;;-143.48;90.06;118439.88;5034843;28;20431;-39
2022/12/01 00:24:18;;;;;;;62.05;25.17;;;;;;;-143.48;89.66;118439.88;5035162;28;20021;-39
2022/12/01 00:26:44;;;;;;;59.95;24.50;;;;;;;-143.48;89.67;118439.88;5034525;28;20116;-39
2022/12/01 00:29:09;;;;;;;63.53;25.60;;;;;;;-143.48;89.73;118439.88;5033495;28;20026;-38
2022/12/01 00:31:35;;;;;;;55.08;23.38;;;;;;;-143.48;89.64;118439.88;5050006;28;20408;-39
2022/12/01 00:34:01;;;;;;;62.50;24.67;;;;;;;-143.48;89.83;118439.88;5035487;28;20468;-39
2022/12/01 00:36:26;;;;;;;56.35;23.75;;;;;;;-143.48;90.06;118439.88;5034936;28;20384;-39
2022/12/01 00:38:54;;;;;;;59.08;24.42;;;;;;;-143.48;90.06;118439.88;5035201;28;20021;-39
2022/12/01 00:41:19;;;;;;;56.50;23.58;;;;;;;-143.48;89.46;118439.88;5035220;28;20057;-39
2022/12/01 00:43:45;;;;;;;58.13;23.83;;;;;;;-143.48;89.40;118439.88;5034622;28;20508;-39
2022/12/01 00:46:10;;;;;;;58.90;25.02;;;;;;;-143.48;90.09;118439.88;5035267;28;20029;-39
2022/12/01 00:48:36;;;;;;;66.05;25.10;;;;;;;-143.48;90.28;118439.88;5035152;28;20026;-39
2022/12/01 00:51:02;;;;;;;58.63;24.17;;;;;;;-143.48;90.54;118439.88;5034623;28;20464;-39
2022/12/01 00:53:27;;;;;;;64.50;25.15;;;;;;;-143.48;90.33;118439.88;5034506;28;20025;-39
2022/12/01 00:55:53;;;;;;;60.20;25.48;;;;;;;-143.48;90.12;118439.88;5034640;28;20078;-38
2022/12/01 00:58:18;;;;;;;60.40;24.23;;;;;;;-143.48;90.19;118439.88;5034454;28;20059;-38
2022/12/01 01:00:43;;;;;;;61.08;24.38;;;;;;;-143.48;89.62;118439.88;5049621;28;20017;-39
2022/12/01 01:03:09;;;;;;;60.85;25.00;;;;;;;-143.48;89.55;118439.88;5034003;28;20036;-38
2022/12/01 01:05:36;;;;;;;61.90;24.80;;;;;;;-143.48;89.59;118439.88;5032372;28;20048;-39
2022/12/01 01:08:06;;;;;;;58.22;24.58;;;;;;;-143.48;88.66;118439.88;5033236;28;20128;-39
2022/12/01 01:10:31;;;;;;;57.35;24.55;;;;;;;-143.48;88.73;118439.88;5034128;28;20017;-39
2022/12/01 01:12:56;;;;;;;57.22;23.58;;;;;;;-143.48;88.58;118439.88;5033809;28;20427;-39
2022/12/01 01:15:21;;;;;;;53.90;23.20;;;;;;;-143.48;88.09;118439.88;5033929;28;20022;-39
2022/12/01 01:17:47;;;;;;;61.67;23.63;;;;;;;-143.48;88.59;118439.88;5033886;28;20358;-39
2022/12/01 01:20:12;;;;;;;54.80;22.63;;;;;;;-143.48;89.31;118439.88;5034072;28;20075;-39
2022/12/01 01:22:37;;;;;;;61.20;23.42;;;;;;;-143.48;89.55;118439.88;5034406;28;20083;-39
2022/12/01 01:25:03;;;;;;;53.78;23.50;;;;;;;-143.48;89.67;118439.88;5034344;28;20503;-40
2022/12/01 01:27:29;;;;;;;56.15;24.25;;;;;;;-143.48;89.88;118439.88;5032598;28;20116;-39
2022/12/01 01:29:54;;;;;;;58.28;24.05;;;;;;;-143.48;89.81;118439.88;5034083;28;20103;-39
2022/12/01 01:32:19;;;;;;;56.28;24.10;;;;;;;-143.48;89.83;118439.88;5034181;28;20108;-39
2022/12/01 01:34:45;;;;;;;59.47;23.73;;;;;;;-143.48;89.83;118439.88;5034092;28;20017;-39
2022/12/01 01:37:10;;;;;;;58.42;24.13;;;;;;;-143.48;89.80;118439.88;5034097;28;20093;-38
2022/12/01 01:39:35;;;;;;;63.33;24.05;;;;;;;-143.48;89.88;118439.88;5034029;28;20121;-39
2022/12/01 01:42:00;;;;;;;51.72;23.10;;;;;;;-143.48;90.07;118439.88;5034003;28;20460;-38
2022/12/01 01:44:52;;;;;;;56.22;24.75;;;;;;;-143.48;89.73;118439.88;5034206;28;20030;-39
2022/12/01 01:47:27;;;;;;;54.17;22.92;;;;;;;-143.48;89.67;118439.88;5033719;28;20423;-38
2022/12/01 01:49:55;;;;;;;60.47;24.50;;;;;;;-143.48;89.52;118439.88;5033521;28;20021;-40
2022/12/01 01:52:22;;;;;;;57.38;22.70;;;;;;;-143.48;89.54;118439.88;5033905;28;20025;-40
2022/12/01 01:54:50;;;;;;;55.65;23.70;;;;;;;-143.48;89.39;118439.88;5033813;28;20532;-39
2022/12/01 01:57:28;;;;;;;62.17;25.33;;;;;;;-143.48;89.82;118439.88;5033448;28;20025;-39
2022/12/01 02:00:00;;;;;;;54.00;24.13;;;;;;;-143.48;89.31;118439.88;5033426;28;20022;-39
2022/12/01 02:02:25;;;;;;;62.25;23.83;;;;;;;-143.48;89.34;118439.88;5033451;28;20030;-39
2022/12/01 02:04:57;;;;;;;60.22;24.35;;;;;;;-143.48;89.20;118439.88;5033682;28;20021;-39
2022/12/01 02:07:24;;;;;;;60.27;23.80;;;;;;;-143.48;88.82;118439.88;5033875;28;20309;-39
2022/12/01 02:09:49;;;;;;;56.15;23.52;;;;;;;-143.48;88.71;118439.88;5033611;28;20267;-39
2022/12/01 02:12:17;;;;;;;55.80;23.60;;;;;;;-143.48;89.07;118439.88;5033275;28;20029;-39
2022/12/01 02:15:01;;;;;;;60.22;24.23;;;;;;;-143.48;88.84;118439.88;5034057;28;20075;-39
2022/12/01 02:18:00;;;;;;;59.50;23.55;;;;;;;-143.48;89.51;118439.88;5033422;28;20100;-39
2022/12/01 02:20:54;;;;;;;61.33;23.70;;;;;;;-143.48;89.04;118439.88;5033253;28;20028;-39
2022/12/01 02:23:41;;;;;;;58.08;24.42;;;;;;;-143.48;89.36;118439.88;5033696;28;20033;-39
2022/12/01 02:26:35;;;;;;;59.75;23.08;;;;;;;-143.48;89.11;118439.88;5033142;28;20029;-39
2022/12/01 02:29:06;;;;;;;63.92;24.70;;;;;;;-143.48;89.08;118439.88;5024838;28;20396;-39
2022/12/01 02:31:41;;;;;;;59.97;24.38;;;;;;;-143.48;88.62;118439.88;5036806;28;20054;-40
2022/12/01 02:34:38;;;;;;;62.35;24.30;;;;;;;-143.48;89.22;118439.88;5037184;28;20060;-39
2022/12/01 02:37:13;;;;;;;57.67;24.17;;;;;;;-143.48;89.47;118439.88;5035879;28;20022;-39
2022/12/01 02:39:55;;;;;;;58.72;22.92;;;;;;;-143.48;90.03;118439.88;5037351;28;20132;-39
2022/12/01 02:42:50;;;;;;;61.40;23.73;;;;;;;-143.48;90.21;118439.88;5037555;28;20068;-39
2022/12/01 02:45:39;;;;;;;61.28;24.45;;;;;;;-143.48;90.25;118439.88;5037526;28;20025;-39
2022/12/01 02:48:11;;;;;;;58.83;23.23;;;;;;;-143.48;90.33;118439.88;5036905;28;20032;-39
2022/12/01 02:50:38;;;;;;;62.20;24.42;;;;;;;-143.48;89.91;118439.88;5037163;28;20124;-39
2022/12/01 02:53:07;;;;;;;59.53;23.88;;;;;;;-143.48;90.11;118439.88;5036879;28;20075;-39
2022/12/01 02:55:33;;;;;;;58.97;24.92;;;;;;;-143.48;90.63;118439.88;5036698;28;20464;-39
2022/12/01 02:57:58;;;;;;;62.30;24.55;;;;;;;-143.48;90.71;118439.88;5036959;28;20017;-39
2022/12/01 03:00:23;;;;;;;63.75;25.90;;;;;;;-143.48;90.71;118439.88;5037028;28;20025;-39
2022/12/01 03:03:16;;;;;;;61.92;24.83;;;;;;;-143.48;90.99;118439.88;5036701;28;20017;-39
2022/12/01 03:06:01;;;;;;;63.85;25.33;;;;;;;-143.48;91.68;118439.88;5035315;28;20052;-39
2022/12/01 03:09:08;;;;;;;63.70;23.70;;;;;;;-143.48;91.29;118439.88;5036780;28;20033;-39
2022/12/01 03:11:45;;;;;;;59.40;24.25;;;;;;;-143.48;91.20;118439.88;5014814;28;20088;-39
2022/12/01 03:14:31;;;;;;;60.63;24.23;;;;;;;-143.48;91.18;118439.88;5034548;28;20366;-39
2022/12/01 03:17:03;;;;;;;65.40;24.50;;;;;;;-143.48;91.55;118439.88;5036641;28;20119;-39
2022/12/01 03:19:40;;;;;;;63.70;24.65;;;;;;;-143.48;91.89;118439.88;5036309;28;20026;-40
2022/12/01 03:22:12;;;;;;;64.63;24.90;;;;;;;-143.48;91.52;118439.88;5036342;28;20163;-40
2022/12/01 03:24:41;;;;;;;65.05;25.30;;;;;;;-143.48;91.45;118439.88;5036495;28;20083;-40
2022/12/01 03:27:08;;;;;;;66.20;25.35;;;;;;;-143.48;90.92;118439.88;5036581;28;20116;-39
2022/12/01 03:29:40;;;;;;;61.88;25.58;;;;;;;-143.48;91.31;118439.88;5036217;28;20025;-40
2022/12/01 03:32:30;;;;;;;64.85;25.25;;;;;;;-143.48;91.28;118439.88;5036869;28;20022;-39
2022/12/01 03:35:09;;;;;;;69.57;25.73;;;;;;;-143.48;91.74;118439.88;5036441;28;20029;-39
2022/12/01 03:37:55;;;;;;;68.53;24.90;;;;;;;-143.48;91.30;118439.88;5036787;28;20024;-39
2022/12/01 03:40:26;;;;;;;64.75;25.40;;;;;;;-143.48;91.65;118439.88;5034578;28;20040;-39
2022/12/01 03:43:10;;;;;;;63.40;24.88;;;;;;;-143.48;91.51;118439.88;5034942;28;20028;-31
2022/12/01 03:45:44;;;;;;;61.55;25.17;;;;;;;-143.48;91.51;118439.88;5035886;28;20025;-30
2022/12/01 03:48:10;;;;;;;61.88;24.80;;;;;;;-143.48;91.52;118439.88;5035989;28;20468;-32
2022/12/01 03:50:49;;;;;;;69.38;25.50;;;;;;;-143.48;91.63;118439.88;5035930;28;20022;-32
2022/12/01 03:53:26;;;;;;;64.93;24.98;;;;;;;-143.48;92.08;118439.88;5036299;28;20029;-32
2022/12/01 03:55:59;;;;;;;63.90;24.67;;;;;;;-143.48;91.75;118439.88;5035994;28;20414;-30
2022/12/01 03:58:33;;;;;;;62.40;24.38;;;;;;;-143.48;91.33;118439.88;5036145;28;20029;-32
2022/12/01 04:01:01;;;;;;;66.53;24.30;;;;;;;-143.48;91.77;118439.88;5051101;28;20032;-30
2022/12/01 04:03:27;;;;;;;66.53;24.83;;;;;;;-143.48;91.77;118439.88;5035997;28;20025;-30
2022/12/01 04:05:52;;;;;;;62.47;25.17;;;;;;;-143.48;91.74;118439.88;5036207;28;20112;-30
2022/12/01 04:08:17;;;;;;;64.47;24.75;;;;;;;-143.48;91.90;118439.88;5035656;28;20104;-31
2022/12/01 04:10:43;;;;;;;66.03;24.55;;;;;;;-143.48;92.37;118439.88;5036304;28;20083;-31
2022/12/01 04:13:15;;;;;;;71.95;25.42;;;;;;;-143.48;92.44;118439.88;5035432;28;20028;-30
2022/12/01 04:15:41;;;;;;;66.72;25.45;;;;;;;-143.48;91.72;118439.88;5035396;28;20029;-32
2022/12/01 04:18:06;;;;;;;66.72;24.55;;;;;;;-143.48;91.93;118439.88;5035284;28;20064;-30
2022/12/01 04:20:32;;;;;;;68.47;25.20;;;;;;;-143.48;91.75;118439.88;5035212;28;20472;-30
2022/12/01 04:22:57;;;;;;;69.15;25.50;;;;;;;-143.48;91.67;118439.88;5035552;28;20033;-31
2022/12/01 04:25:22;;;;;;;64.65;24.85;;;;;;;-143.48;91.41;118439.88;5035501;28;20025;-32
2022/12/01 04:27:48;;;;;;;64.82;24.55;;;;;;;-143.48;91.56;118439.88;5035307;28;20021;-32
2022/12/01 04:30:13;;;;;;;69.65;25.73;;;;;;;-143.48;91.79;118439.88;5035199;28;20069;-32
2022/12/01 04:32:41;;;;;;;61.70;25.02;;;;;;;-143.48;91.32;118439.88;5035299;28;20376;-32
2022/12/01 04:35:08;;;;;;;66.90;25.90;;;;;;;-143.48;91.29;118439.88;5033687;28;20025;-32
2022/12/01 04:37:34;;;;;;;62.85;24.77;;;;;;;-143.48;91.54;118439.88;5035516;28;20078;-30
2022/12/01 04:39:59;;;;;;;65.78;24.77;;;;;;;-143.48;91.38;118439.88;5033596;28;20505;-30
2022/12/01 04:42:24;;;;;;;61.35;24.65;;;;;;;-143.48;92.00;118439.88;5034863;28;20022;-30
2022/12/01 04:44:50;;;;;;;68.18;26.05;;;;;;;-143.48;92.37;118439.88;5034737;28;20021;-31
2022/12/01 04:47:15;;;;;;;73.45;25.20;;;;;;;-143.48;91.99;118439.88;5034889;28;20453;-29
2022/12/01 04:49:40;;;;;;;71.45;25.20;;;;;;;-143.48;92.09;118439.88;5034970;28;20028;-30
2022/12/01 04:52:06;;;;;;;64.72;24.73;;;;;;;-143.48;92.00;118439.88;5034506;28;20025;-30
2022/12/01 04:54:31;;;;;;;61.90;24.35;;;;;;;-143.48;92.05;118439.88;5034282;28;20026;-30
2022/12/01 04:56:57;;;;;;;69.47;25.48;;;;;;;-143.48;92.60;118439.88;5034683;28;20045;-30
2022/12/01 04:59:22;;;;;;;69.18;25.52;;;;;;;-143.48;92.42;118439.88;5034575;28;20057;-32
2022/12/01 05:01:47;;;;;;;68.78;25.55;;;;;;;-143.48;92.63;118439.88;5034820;28;20043;-32
2022/12/01 05:04:14;;;;;;;64.75;24.27;;;;;;;-143.48;92.51;118439.88;5034420;28;20021;-30
2022/12/01 05:06:39;;;;;;;63.88;24.17;;;;;;;-143.48;91.91;118439.88;5034541;28;20075;-31
2022/12/01 05:09:05;;;;;;;62.95;23.90;;;;;;;-143.48;91.75;118439.88;5034755;28;20029;-30
2022/12/01 05:11:31;;;;;;;66.70;23.80;;;;;;;-143.48;92.04;118439.88;5034758;28;20031;-30
2022/12/01 05:13:58;;;;;;;66.13;24.10;;;;;;;-143.48;92.62;118439.88;5034499;28;20417;-30
2022/12/01 05:16:26;;;;;;;61.08;23.55;;;;;;;-143.48;92.24;118439.88;5034108;28;20416;-29
2022/12/01 05:20:55;;;;;;;71.10;25.65;;;;;;;-143.48;92.32;118439.88;5034340;28;20020;-30
2022/12/01 05:21:40;;;;;;;68.53;24.30;;;;;;;-143.48;92.42;118439.88;5033999;28;20033;-29
2022/12/01 05:24:06;;;;;;;71.95;24.48;;;;;;;-143.48;92.14;118439.88;5034037;28;20342;-30
2022/12/01 05:26:31;;;;;;;58.58;23.30;;;;;;;-143.48;92.45;118439.88;5034489;28;20129;-30
2022/12/01 05:28:57;;;;;;;67.72;23.27;;;;;;;-143.48;92.37;118439.88;5034055;28;20028;-30
2022/12/01 05:31:22;;;;;;;62.90;23.95;;;;;;;-143.48;92.39;118439.88;5033683;28;20548;-30
2022/12/01 05:33:47;;;;;;;64.85;24.27;;;;;;;-143.48;92.52;118439.88;5034079;28;20030;-30
2022/12/01 05:36:12;;;;;;;65.15;23.70;;;;;;;-143.48;92.27;118439.88;5034079;28;20476;-30
2022/12/01 05:38:38;;;;;;;60.00;23.65;;;;;;;-143.48;92.00;118439.88;5034021;28;20066;-30
2022/12/01 05:41:03;;;;;;;58.13;23.02;;;;;;;-143.48;91.62;118439.88;5033944;28;20369;-30
2022/12/01 05:43:28;;;;;;;61.78;23.38;;;;;;;-143.48;92.46;118439.88;5034123;28;20465;-30
2022/12/01 05:45:54;;;;;;;64.95;23.15;;;;;;;-143.48;92.06;118439.88;5033606;28;20528;-30
2022/12/01 05:48:19;;;;;;;62.88;23.90;;;;;;;-143.48;92.60;118439.88;5033501;28;20026;-30
2022/12/01 05:50:45;;;;;;;64.63;22.67;;;;;;;-143.48;91.77;118439.88;5033704;28;20025;-33
2022/12/01 05:53:11;;;;;;;61.95;23.33;;;;;;;-143.48;91.90;118439.88;5033635;28;20105;-30
2022/12/01 05:55:37;;;;;;;68.53;24.02;;;;;;;-143.48;91.92;118439.88;5033506;28;20079;-30
2022/12/01 05:58:02;;;;;;;60.00;22.90;;;;;;;-143.48;91.10;118439.88;5048818;28;20021;-30
2022/12/01 06:00:28;;;;;;;65.88;24.05;;;;;;;-143.48;92.15;118439.88;5033749;28;20469;-30
2022/12/01 06:02:53;;;;;;;66.82;24.17;;;;;;;-143.48;91.91;118439.88;5033267;28;20060;-30
2022/12/01 06:05:19;;;;;;;65.45;24.58;;;;;;;-143.48;91.98;118439.88;5032909;28;20026;-30
2022/12/01 06:07:44;;;;;;;72.45;25.02;;;;;;;-143.48;92.60;118439.88;5033331;28;20025;-30
2022/12/01 06:10:10;;;;;;;65.40;24.70;;;;;;;-143.48;92.24;118439.88;5033388;28;20021;-30
2022/12/01 06:12:35;;;;;;;63.22;23.55;;;;;;;-143.48;91.68;118439.88;5033307;28;20095;-30
2022/12/01 06:15:02;;;;;;;67.22;24.45;;;;;;;-143.48;92.13;118439.88;5033605;28;20192;-32
2022/12/01 06:17:28;;;;;;;63.97;24.10;;;;;;;-143.48;92.35;118439.88;5033214;28;20021;-31
2022/12/01 06:19:53;;;;;;;58.58;23.45;;;;;;;-143.48;93.01;118439.88;5033147;28;20439;-32
2022/12/01 06:22:18;;;;;;;63.80;23.27;;;;;;;-143.48;92.16;118439.88;5048746;28;20037;-31
2022/12/01 06:24:43;;;;;;;59.38;22.83;;;;;;;-143.48;91.62;118439.88;5033019;28;20017;-31
2022/12/01 06:27:09;;;;;;;62.63;23.40;;;;;;;-143.48;92.30;118439.88;5033090;28;20440;-31
2022/12/01 06:29:34;;;;;;;67.38;23.52;;;;;;;-143.48;91.80;118439.88;5032892;28;20025;-32
2022/12/01 06:31:59;;;;;;;64.28;22.20;;;;;;;-143.48;92.21;118439.88;5033203;28;20044;-31
2022/12/01 06:34:25;;;;;;;57.72;23.05;;;;;;;-143.48;91.47;118439.88;5032919;28;20488;-31
2022/12/01 06:36:50;;;;;;;59.50;22.52;;;;;;;-143.48;91.14;118439.88;5033243;28;20025;-31
2022/12/01 06:39:15;;;;;;;68.80;23.13;;;;;;;-143.48;91.92;118439.88;5033240;28;20147;-31
2022/12/01 06:41:41;;;;;;;65.13;23.42;;;;;;;-143.48;91.57;118439.88;5032988;28;20029;-31
2022/12/01 06:44:06;;;;;;;65.80;23.85;;;;;;;-143.48;92.03;118439.88;5033529;28;20061;-31
2022/12/01 06:46:32;;;;;;;65.45;23.27;;;;;;;-143.48;91.21;118439.88;5032841;28;20033;-31
2022/12/01 06:48:57;;;;;;;59.17;22.85;;;;;;;-143.48;91.37;118439.88;5033458;28;20103;-31
2022/12/01 06:51:22;;;;;;;61.10;22.83;;;;;;;-143.48;91.54;118439.88;5032863;28;20036;-31
2022/12/01 06:53:52;;;;;;;62.38;22.58;;;;;;;-143.48;91.15;118439.88;5033117;28;20028;-31
2022/12/01 06:56:18;;;;;;;59.28;22.55;;;;;;;-143.48;91.85;118439.88;5032879;28;20026;-31
2022/12/01 06:58:43;;;;;;;66.93;23.77;;;;;;;-143.48;91.45;118439.88;5032787;28;20040;-31
2022/12/01 07:01:10;;;;;;;60.20;23.23;;;;;;;-143.48;91.70;118439.88;5032741;28;20021;-31
2022/12/01 07:03:35;;;;;;;70.18;23.58;;;;;;;-143.48;92.17;118439.88;5033152;28;20048;-31
2022/12/01 07:06:01;;;;;;;61.38;23.02;;;;;;;-143.48;92.01;118439.88;5033065;28;20488;-31
2022/12/01 07:08:28;;;;;;;63.40;23.35;;;;;;;-143.48;92.26;118439.88;5032529;28;20029;-31
2022/12/01 07:11:02;;;;;;;62.67;23.33;;;;;;;-143.48;92.31;118439.88;5033021;28;20028;-31
2022/12/01 07:13:28;;;;;;;61.30;24.13;;;;;;;-143.48;91.98;118439.88;5032968;28;20139;-32
2022/12/01 07:15:53;;;;;;;59.47;22.80;;;;;;;-143.48;91.60;118439.88;5033498;28;20419;-31
2022/12/01 07:18:19;;;;;;;69.72;24.05;;;;;;;-143.48;92.24;118439.88;5035703;28;20017;-31
2022/12/01 07:20:44;;;;;;;63.17;22.95;;;;;;;-143.48;92.58;118439.88;5036015;28;20037;-31
2022/12/01 07:23:09;;;;;;;63.35;21.73;;;;;;;-143.48;91.36;118439.88;5032465;28;20017;-31
2022/12/01 07:25:34;;;;;;;57.13;22.00;;;;;;;-143.48;91.51;118439.88;5032172;28;20048;-31
2022/12/01 07:28:00;;;;;;;64.43;22.65;;;;;;;-143.48;91.39;118439.88;5032112;28;20052;-32
2022/12/01 07:30:25;;;;;;;68.68;24.38;;;;;;;-143.48;91.28;118439.88;5032409;28;20053;-31
2022/12/01 07:32:50;;;;;;;65.43;23.20;;;;;;;-143.48;91.43;118439.88;5033397;28;20554;-31
2022/12/01 07:35:16;;;;;;;69.22;25.15;;;;;;;-143.48;91.81;118439.88;5031481;28;20025;-31
2022/12/01 07:37:41;;;;;;;65.78;23.92;;;;;;;-143.48;91.67;118439.88;5032175;28;20025;-31
2022/12/01 07:40:07;;;;;;;64.13;23.70;;;;;;;-143.48;91.88;118439.88;5035872;28;20025;-31
2022/12/01 07:42:32;;;;;;;66.22;23.88;;;;;;;-143.48;91.31;118439.88;5035342;28;20652;-32
2022/12/01 07:44:58;;;;;;;71.75;24.63;;;;;;;-143.48;91.15;118439.88;5035151;28;20104;-31
2022/12/01 07:47:26;;;;;;;66.18;24.02;;;;;;;-143.48;91.28;118439.88;5035881;28;20029;-31
2022/12/01 07:49:51;;;;;;;72.07;25.35;;;;;;;-143.48;91.49;118439.88;5036442;28;20465;-31
2022/12/01 07:52:17;;;;;;;68.38;24.65;;;;;;;-143.48;91.23;118439.88;5035573;28;20048;-31
2022/12/01 07:54:42;;;;;;;74.00;24.52;;;;;;;-143.48;90.88;118439.88;5035988;28;20022;-31
2022/12/01 07:57:07;;;;;;;71.03;24.65;;;;;;;-143.48;91.39;118439.88;5035999;28;20022;-31
2022/12/01 07:59:33;;;;;;;68.78;25.20;;;;;;;-143.48;90.81;118439.88;5036066;28;20022;-31
2022/12/01 08:01:58;;;;;;;71.60;25.50;;;;;;;-143.48;90.92;118439.88;5035973;28;20028;-32
2022/12/01 08:04:23;;;;;;;64.68;25.02;;;;;;;-143.48;90.80;118439.88;5035820;28;20468;-32
2022/12/01 08:06:49;;;;;;;75.20;24.23;;;;;;;-143.48;90.53;118439.88;5035784;28;20029;-31
2022/12/01 08:09:14;;;;;;;68.15;24.85;;;;;;;-143.48;90.09;118439.88;5034806;28;20061;-32
2022/12/01 08:11:39;;;;;;;64.25;24.30;;;;;;;-143.48;90.23;118439.88;5033354;28;20037;-31
2022/12/01 08:14:05;;;;;;;67.90;25.25;;;;;;;-143.48;90.67;118439.88;5034534;28;20560;-32
2022/12/01 08:16:30;;;;;;;69.72;25.10;;;;;;;-143.48;90.59;118439.88;5034515;28;20060;-31
2022/12/01 08:18:55;;;;;;;74.70;26.67;;;;;;;-143.48;90.84;118439.88;5034598;28;20510;-32
2022/12/01 08:21:22;;;;;;;77.28;27.10;;;;;;;-143.48;90.73;118439.88;5033097;28;20029;-31
2022/12/01 08:23:51;;;;;;;76.00;25.77;;;;;;;-143.48;90.63;118439.88;5035136;28;20033;-31
2022/12/01 08:26:18;;;;;;;70.47;26.63;;;;;;;-143.48;90.11;118439.88;5035146;28;20029;-31
2022/12/01 08:28:44;;;;;;;74.15;26.63;;;;;;;-143.48;90.70;118439.88;5034194;28;20021;-31
2022/12/01 08:31:22;;;;;;;66.60;25.23;;;;;;;-143.48;89.74;118439.88;5035076;28;20057;-32
2022/12/01 08:33:48;;;;;;;72.65;25.85;;;;;;;-143.48;90.38;118439.88;5035175;28;20512;-31
2022/12/01 08:36:14;;;;;;;67.50;25.77;;;;;;;-143.48;89.42;118439.88;5034908;28;20112;-32
2022/12/01 08:38:43;;;;;;;69.47;25.92;;;;;;;-143.48;89.88;118439.88;5035204;28;20075;-31
2022/12/01 08:41:08;;;;;;;68.85;25.30;;;;;;;-143.48;89.82;118439.88;5034866;28;20013;-32
2022/12/01 08:43:39;;;;;;;72.95;26.35;;;;;;;-143.48;89.27;118439.88;5034977;28;20083;-31
2022/12/01 08:46:05;;;;;;;67.45;26.15;;;;;;;-143.48;88.97;118439.88;5034789;28;20127;-32
2022/12/01 08:48:30;;;;;;;70.53;26.05;;;;;;;-143.48;88.34;118439.88;5034578;28;20412;-32
2022/12/01 08:51:03;;;;;;;64.03;26.27;;;;;;;-143.48;88.36;118439.88;5034704;28;20036;-32
2022/12/01 08:53:32;;;;;;;73.07;27.00;;;;;;;-143.48;88.20;118439.88;5034710;28;20025;-31
2022/12/01 08:56:00;;;;;;;66.00;25.98;;;;;;;-143.48;87.71;118439.88;5049674;28;20039;-32
2022/12/01 08:58:27;;;;;;;66.20;25.85;;;;;;;-143.48;87.52;118439.88;5034544;28;20034;-31
2022/12/01 09:00:52;;;;;;;69.35;26.63;;;;;;;-143.48;86.53;118439.88;5034541;28;20030;-32
2022/12/01 09:03:17;;;;;;;67.07;27.55;;;;;;;-143.48;85.91;118439.88;5034745;28;20021;-31
2022/12/01 09:05:42;;;;;;;71.53;27.48;;;;;;;-143.48;85.80;118439.88;5033183;28;20112;-31
2022/12/01 09:10:52;;;;;;;62.33;25.33;;;;;;;-143.48;85.78;118439.88;5035066;28;20052;-32
2022/12/01 09:13:17;;;;;;;65.32;26.48;;;;;;;-143.48;86.46;118439.88;5034622;28;20025;-31
2022/12/01 09:15:43;;;;;;;67.40;27.15;;;;;;;-143.48;87.26;118439.88;5034245;28;20405;-32
2022/12/01 09:18:08;;;;;;;66.28;26.20;;;;;;;-143.48;86.43;118439.88;5033932;28;20064;-31
2022/12/01 09:20:33;;;;;;;68.65;27.10;;;;;;;-143.48;86.56;118439.88;5034408;28;20120;-32
2022/12/01 09:22:58;;;;;;;63.20;25.65;;;;;;;-143.48;86.28;118439.88;5034259;28;20097;-32
2022/12/01 09:25:24;;;;;;;71.32;27.25;;;;;;;-143.48;86.51;118439.88;5034018;28;20029;-31
2022/12/01 09:27:50;;;;;;;71.13;27.30;;;;;;;-143.48;85.65;118439.88;5034052;28;20030;-31
2022/12/01 09:30:15;;;;;;;67.07;26.30;;;;;;;-143.48;85.58;118439.88;5033746;28;20409;-32
2022/12/01 09:32:41;;;;;;;65.65;26.98;;;;;;;-143.48;84.30;118439.88;5033732;28;20037;-31
2022/12/01 09:35:06;;;;;;;67.55;26.75;;;;;;;-143.48;83.09;118439.88;5033842;28;20029;-31
2022/12/01 09:37:31;;;;;;;69.88;27.35;;;;;;;-143.48;83.25;118439.88;5034035;28;20041;-31
2022/12/01 09:39:57;;;;;;;66.15;25.27;;;;;;;-143.48;83.72;118439.88;5033876;28;20028;-31
2022/12/01 09:42:26;;;;;;;66.85;26.70;;;;;;;-143.48;84.52;118439.88;5033907;28;20095;-31
2022/12/01 09:44:53;;;;;;;66.45;25.90;;;;;;;-143.48;83.69;118439.88;5033872;28;20025;-31
2022/12/01 09:47:25;;;;;;;66.20;25.70;;;;;;;-143.48;83.11;118439.88;5033557;28;20124;-31
2022/12/01 09:50:02;;;;;;;68.68;26.30;;;;;;;-143.48;83.20;118439.88;5033868;28;20464;-31
2022/12/01 09:52:50;;;;;;;69.32;27.13;;;;;;;-143.48;82.07;118439.88;5033756;28;20026;-31
2022/12/01 09:55:18;;;;;;;61.40;25.00;;;;;;;-143.48;81.64;118439.88;5033342;28;20037;-31
2022/12/01 09:57:47;;;;;;;68.57;26.58;;;;;;;-143.48;80.81;118439.88;5033769;28;20373;-31
2022/12/01 10:00:21;;;;;;;65.10;26.15;;;;;;;-143.48;71.93;118439.88;5033601;28;20052;-31
2022/12/01 10:02:59;;;;;;;62.00;27.77;;;;;;;-143.48;63.29;118439.88;5033704;28;20061;-31
2022/12/01 10:05:30;;;;;;;57.08;27.98;;;;;;;-143.48;58.73;118439.88;5033638;28;20164;-31
2022/12/01 10:08:00;;;;;;;56.55;28.38;;;;;;;-143.48;57.25;118439.88;5033429;28;20021;-31
2022/12/01 10:10:34;;;;;;;50.90;27.95;;;;;;;-143.48;54.48;118439.88;5033660;28;20153;-32
2022/12/01 10:12:59;;;;;;;57.40;29.58;;;;;;;-143.48;53.58;118439.88;5033353;28;20469;-31
2022/12/01 10:15:40;;;;;;;52.35;28.63;;;;;;;-143.48;53.07;118439.88;5033515;28;20083;-31
2022/12/01 10:18:39;;;;;;;52.50;27.65;;;;;;;-143.48;58.88;118439.88;5033994;28;20029;-31
2022/12/01 10:21:10;;;;;;;51.88;28.15;;;;;;;-143.48;58.85;118439.88;5033566;28;20032;-32
2022/12/01 10:23:54;;;;;;;55.03;28.35;;;;;;;-143.48;59.06;118439.88;5033309;28;20033;-31
2022/12/01 10:26:50;;;;;;;51.60;28.33;;;;;;;-143.48;54.31;118439.88;5033311;28;20036;-31
2022/12/01 10:29:22;;;;;;;54.45;27.45;;;;;;;-143.48;58.97;118439.88;5032837;28;20108;-32
2022/12/01 10:31:53;;;;;;;52.47;28.23;;;;;;;-143.48;52.14;118439.88;5033021;28;20416;-32
2022/12/01 10:34:26;;;;;;;52.10;28.42;;;;;;;-143.48;53.59;118439.88;5033430;28;20025;-31
2022/12/01 10:36:51;;;;;;;49.38;27.25;;;;;;;-143.48;50.71;118439.88;5032984;28;20033;-31
2022/12/01 10:39:28;;;;;;;49.78;27.52;;;;;;;-143.48;58.37;118439.88;5033285;28;20022;-31
2022/12/01 10:42:01;;;;;;;51.50;27.95;;;;;;;-143.48;60.84;118439.88;5033325;28;20029;-32
2022/12/01 10:44:27;;;;;;;50.70;28.00;;;;;;;-143.48;61.13;118439.88;5032956;28;20385;-32
2022/12/01 10:46:55;;;;;;;46.65;25.15;;;;;;;-143.48;59.49;118439.88;5032776;28;20159;-32
2022/12/01 10:49:34;;;;;;;43.90;25.58;;;;;;;-143.48;49.44;118439.88;5032498;28;20025;-32
2022/12/01 10:52:00;;;;;;;45.00;26.02;;;;;;;-143.48;51.81;118439.88;5033403;28;20022;-32
2022/12/01 10:54:37;;;;;;;47.25;26.30;;;;;;;-143.48;52.61;118439.88;5034634;28;20033;-32
2022/12/01 10:57:04;;;;;;;48.85;27.05;;;;;;;-143.48;60.19;118439.88;5034101;28;20021;-32
2022/12/01 11:00:00;;;;;;;44.08;24.42;;;;;;;-143.48;61.57;118439.88;5034234;28;20029;-33
2022/12/01 11:02:27;;;;;;;45.75;24.92;;;;;;;-143.48;64.38;118439.88;5030334;28;20038;-32
2022/12/01 11:04:56;;;;;;;48.55;25.17;;;;;;;-143.48;66.29;118439.88;5035241;28;20042;-32
2022/12/01 11:07:25;;;;;;;50.85;25.73;;;;;;;-143.48;67.52;118439.88;5035927;28;20029;-32
2022/12/01 11:10:02;;;;;;;49.00;24.48;;;;;;;-143.48;68.45;118439.88;5036107;28;20025;-31